createdAt,value
2023-02-11T00:00:08.742Z,415.44
2023-02-11T00:00:19.731Z,415.28
2023-02-11T00:00:30.721Z,415.26
2023-02-11T00:00:41.720Z,415.33
2023-02-11T00:00:52.824Z,415.37
2023-02-11T00:01:03.716Z,415.30
2023-02-11T00:01:14.703Z,415.31
2023-02-11T00:01:25.731Z,415.37
2023-02-11T00:01:36.721Z,415.40
2023-02-11T00:01:47.778Z,415.55
2023-02-11T00:01:58.772Z,415.56
2023-02-11T00:02:10.782Z,415.50
2023-02-11T00:02:21.765Z,415.52
2023-02-11T00:02:32.875Z,415.55
2023-02-11T00:02:47.702Z,415.55
2023-02-11T00:02:55.766Z,415.59
2023-02-11T00:03:07.789Z,415.66
2023-02-11T00:03:18.761Z,415.79
2023-02-11T00:03:29.925Z,415.88
2023-02-11T00:03:41.807Z,415.74
2023-02-11T00:03:53.765Z,415.81
2023-02-11T00:04:05.753Z,415.84
2023-02-11T00:04:16.744Z,415.88
2023-02-11T00:04:27.730Z,415.83
2023-02-11T00:04:38.751Z,415.85
2023-02-11T00:04:49.746Z,416.02
2023-02-11T00:05:00.751Z,416.06
2023-02-11T00:05:11.751Z,416.02
2023-02-11T00:05:22.749Z,416.11
2023-02-11T00:05:33.756Z,416.00
2023-02-11T00:05:44.750Z,415.81
2023-02-11T00:05:55.751Z,415.77
2023-02-11T00:06:06.762Z,415.66
2023-02-11T00:06:17.764Z,415.64
2023-02-11T00:06:28.761Z,415.47
2023-02-11T00:06:39.761Z,415.44
2023-02-11T00:06:50.746Z,415.45
2023-02-11T00:07:01.746Z,415.35
2023-02-11T00:07:12.749Z,415.41
2023-02-11T00:07:23.742Z,415.72
2023-02-11T00:07:34.723Z,415.80
2023-02-11T00:07:45.720Z,415.78
2023-02-11T00:07:56.759Z,416.01
2023-02-11T00:08:07.760Z,415.95
2023-02-11T00:08:19.784Z,415.95
2023-02-11T00:08:31.748Z,415.95
2023-02-11T00:08:42.760Z,415.89
2023-02-11T00:08:53.744Z,416.22
2023-02-11T00:09:04.742Z,416.27
2023-02-11T00:09:15.739Z,416.35
2023-02-11T00:09:26.770Z,416.40
2023-02-11T00:09:38.749Z,416.52
2023-02-11T00:09:49.738Z,416.61
2023-02-11T00:10:01.754Z,416.58
2023-02-11T00:10:12.748Z,416.48
2023-02-11T00:10:23.748Z,416.47
2023-02-11T00:10:34.747Z,416.71
2023-02-11T00:10:45.744Z,416.95
2023-02-11T00:10:56.747Z,416.98
2023-02-11T00:11:07.760Z,417.05
2023-02-11T00:11:18.766Z,417.06
2023-02-11T00:11:29.757Z,417.00
2023-02-11T00:11:41.750Z,417.10
2023-02-11T00:11:52.744Z,417.18
2023-02-11T00:12:03.754Z,417.30
2023-02-11T00:12:14.758Z,417.51
2023-02-11T00:12:25.746Z,417.48
2023-02-11T00:12:36.760Z,417.56
2023-02-11T00:12:47.756Z,417.85
2023-02-11T00:12:58.755Z,417.92
2023-02-11T00:13:09.755Z,417.98
2023-02-11T00:13:20.745Z,417.95
2023-02-11T00:13:31.739Z,417.86
2023-02-11T00:13:42.741Z,417.73
2023-02-11T00:13:53.747Z,417.62
2023-02-11T00:14:04.752Z,417.70
2023-02-11T00:14:15.734Z,417.47
2023-02-11T00:14:26.769Z,417.55
2023-02-11T00:14:37.766Z,417.51
2023-02-11T00:14:49.761Z,417.75
2023-02-11T00:15:00.749Z,417.86
2023-02-11T00:15:11.757Z,417.68
2023-02-11T00:15:22.744Z,417.55
2023-02-11T00:15:34.748Z,417.52
2023-02-11T00:15:45.760Z,417.59
2023-02-11T00:15:56.758Z,417.60
2023-02-11T00:16:07.763Z,417.70
2023-02-11T00:16:18.769Z,417.69
2023-02-11T00:16:30.817Z,417.74
2023-02-11T00:16:41.765Z,417.77
2023-02-11T00:16:52.882Z,417.73
2023-02-11T00:17:04.708Z,417.79
2023-02-11T00:17:15.724Z,418.02
2023-02-11T00:17:26.722Z,418.06
2023-02-11T00:17:37.710Z,418.21
2023-02-11T00:17:48.732Z,418.34
2023-02-11T00:17:59.722Z,418.40
2023-02-11T00:18:10.747Z,418.43
2023-02-11T00:18:21.749Z,418.25
2023-02-11T00:18:32.748Z,418.20
2023-02-11T00:18:43.739Z,418.43
2023-02-11T00:18:54.726Z,418.96
2023-02-11T00:19:06.752Z,418.98
2023-02-11T00:19:17.748Z,419.02
2023-02-11T00:19:28.763Z,419.00
2023-02-11T00:19:39.749Z,419.10
2023-02-11T00:19:50.744Z,419.17
2023-02-11T00:20:01.734Z,419.26
2023-02-11T00:20:13.743Z,419.23
2023-02-11T00:20:24.776Z,419.14
2023-02-11T00:20:36.731Z,419.27
2023-02-11T00:20:47.722Z,419.29
2023-02-11T00:20:58.728Z,419.28
2023-02-11T00:21:09.711Z,419.19
2023-02-11T00:21:20.712Z,419.03
2023-02-11T00:21:31.816Z,418.95
2023-02-11T00:21:43.766Z,419.00
2023-02-11T00:21:54.760Z,419.04
2023-02-11T00:22:05.759Z,419.03
2023-02-11T00:22:17.744Z,419.03
2023-02-11T00:22:28.755Z,419.04
2023-02-11T00:22:39.747Z,419.00
2023-02-11T00:22:50.737Z,419.05
2023-02-11T00:23:01.753Z,419.03
2023-02-11T00:23:12.734Z,418.94
2023-02-11T00:23:23.758Z,418.97
2023-02-11T00:23:34.750Z,419.09
2023-02-11T00:23:45.755Z,419.13
2023-02-11T00:23:56.744Z,419.18
2023-02-11T00:24:07.745Z,419.37
2023-02-11T00:24:18.778Z,419.47
2023-02-11T00:24:29.777Z,419.44
2023-02-11T00:24:40.764Z,419.32
2023-02-11T00:24:51.762Z,419.26
2023-02-11T00:25:02.774Z,419.40
2023-02-11T00:25:14.760Z,419.41
2023-02-11T00:25:25.752Z,419.25
2023-02-11T00:25:36.756Z,419.23
2023-02-11T00:25:47.737Z,419.44
2023-02-11T00:25:58.753Z,419.50
2023-02-11T00:26:10.750Z,419.61
2023-02-11T00:26:21.736Z,419.63
2023-02-11T00:26:32.729Z,419.57
2023-02-11T00:26:43.760Z,419.52
2023-02-11T00:26:54.744Z,419.57
2023-02-11T00:27:05.761Z,419.67
2023-02-11T00:27:16.760Z,419.72
2023-02-11T00:27:27.765Z,419.81
2023-02-11T00:27:39.766Z,419.66
2023-02-11T00:27:50.748Z,419.70
2023-02-11T00:28:01.778Z,419.70
2023-02-11T00:28:13.795Z,419.67
2023-02-11T00:28:24.811Z,419.72
2023-02-11T00:28:35.751Z,419.79
2023-02-11T00:28:47.736Z,419.89
2023-02-11T00:28:58.759Z,419.84
2023-02-11T00:29:10.734Z,419.97
2023-02-11T00:29:21.725Z,419.93
2023-02-11T00:29:32.738Z,419.82
2023-02-11T00:29:43.741Z,419.85
2023-02-11T00:29:55.748Z,419.98
2023-02-11T00:30:06.745Z,419.82
2023-02-11T00:30:17.744Z,419.59
2023-02-11T00:30:28.838Z,419.42
2023-02-11T00:30:39.913Z,419.12
2023-02-11T00:30:51.849Z,419.17
2023-02-11T00:31:03.883Z,419.08
2023-02-11T00:31:14.951Z,419.15
2023-02-11T00:31:26.894Z,419.26
2023-02-11T00:31:37.882Z,419.29
2023-02-11T00:31:48.889Z,419.23
2023-02-11T00:31:59.784Z,419.05
2023-02-11T00:32:10.757Z,418.87
2023-02-11T00:32:21.756Z,418.97
2023-02-11T00:32:33.738Z,419.10
2023-02-11T00:32:44.735Z,419.31
2023-02-11T00:32:55.732Z,419.35
2023-02-11T00:33:06.724Z,419.37
2023-02-11T00:33:17.738Z,419.39
2023-02-11T00:33:28.735Z,419.32
2023-02-11T00:33:39.757Z,419.30
2023-02-11T00:33:51.733Z,419.39
2023-02-11T00:34:03.753Z,419.46
2023-02-11T00:34:14.753Z,419.51
2023-02-11T00:34:25.763Z,419.52
2023-02-11T00:34:37.745Z,419.43
2023-02-11T00:34:48.732Z,419.43
2023-02-11T00:34:59.746Z,419.29
2023-02-11T00:35:10.749Z,419.30
2023-02-11T00:35:21.755Z,419.10
2023-02-11T00:35:32.762Z,418.95
2023-02-11T00:35:43.748Z,418.79
2023-02-11T00:35:54.740Z,418.65
2023-02-11T00:36:05.756Z,418.64
2023-02-11T00:36:16.758Z,418.56
2023-02-11T00:36:28.750Z,418.49
2023-02-11T00:36:39.746Z,418.59
2023-02-11T00:36:50.745Z,418.65
2023-02-11T00:37:01.748Z,418.60
2023-02-11T00:37:12.743Z,418.48
2023-02-11T00:37:24.762Z,418.52
2023-02-11T00:37:35.770Z,418.54
2023-02-11T00:37:47.747Z,418.54
2023-02-11T00:37:58.727Z,418.51
2023-02-11T00:38:09.728Z,418.36
2023-02-11T00:38:20.736Z,418.19
2023-02-11T00:38:31.752Z,418.21
2023-02-11T00:38:42.738Z,418.28
2023-02-11T00:38:53.731Z,418.19
2023-02-11T00:39:04.731Z,418.16
2023-02-11T00:39:15.732Z,418.20
2023-02-11T00:39:26.752Z,418.09
2023-02-11T00:39:37.763Z,418.33
2023-02-11T00:39:48.752Z,418.42
2023-02-11T00:40:00.740Z,418.32
2023-02-11T00:40:11.746Z,418.33
2023-02-11T00:40:22.744Z,418.32
2023-02-11T00:40:33.737Z,418.43
2023-02-11T00:40:44.745Z,418.56
2023-02-11T00:40:55.756Z,418.69
2023-02-11T00:41:06.746Z,418.72
2023-02-11T00:41:17.741Z,418.57
2023-02-11T00:41:28.740Z,418.51
2023-02-11T00:41:39.730Z,418.39
2023-02-11T00:41:50.735Z,418.38
2023-02-11T00:42:01.732Z,418.27
2023-02-11T00:42:13.726Z,418.35
2023-02-11T00:42:24.798Z,418.34
2023-02-11T00:42:36.744Z,418.35
2023-02-11T00:42:47.741Z,418.39
2023-02-11T00:42:58.733Z,418.35
2023-02-11T00:43:09.744Z,418.35
2023-02-11T00:43:20.757Z,418.42
2023-02-11T00:43:32.736Z,418.40
2023-02-11T00:43:43.726Z,418.37
2023-02-11T00:43:54.732Z,418.41
2023-02-11T00:44:05.728Z,418.37
2023-02-11T00:44:16.739Z,418.39
2023-02-11T00:44:27.767Z,418.39
2023-02-11T00:44:39.732Z,418.48
2023-02-11T00:44:50.744Z,418.42
2023-02-11T00:45:01.747Z,418.45
2023-02-11T00:45:12.736Z,418.39
2023-02-11T00:45:23.746Z,418.59
2023-02-11T00:45:34.749Z,418.50
2023-02-11T00:45:45.772Z,418.11
2023-02-11T00:45:57.779Z,417.92
2023-02-11T00:46:09.891Z,417.90
2023-02-11T00:46:21.862Z,417.95
2023-02-11T00:46:32.805Z,418.03
2023-02-11T00:46:43.845Z,418.12
2023-02-11T00:46:54.749Z,418.13
2023-02-11T00:47:05.752Z,418.02
2023-02-11T00:47:17.729Z,418.06
2023-02-11T00:47:28.738Z,418.16
2023-02-11T00:47:39.736Z,418.09
2023-02-11T00:47:50.750Z,418.15
2023-02-11T00:48:01.754Z,418.30
2023-02-11T00:48:12.740Z,418.42
2023-02-11T00:48:23.738Z,418.50
2023-02-11T00:48:34.731Z,418.53
2023-02-11T00:48:45.752Z,418.59
2023-02-11T00:48:56.756Z,418.55
2023-02-11T00:49:07.756Z,418.57
2023-02-11T00:49:19.731Z,418.55
2023-02-11T00:49:30.754Z,418.34
2023-02-11T00:49:41.753Z,418.44
2023-02-11T00:49:52.765Z,418.56
2023-02-11T00:50:03.755Z,418.56
2023-02-11T00:50:15.741Z,418.45
2023-02-11T00:50:26.749Z,418.40
2023-02-11T00:50:37.740Z,418.46
2023-02-11T00:50:48.737Z,418.57
2023-02-11T00:51:00.746Z,418.51
2023-02-11T00:51:12.747Z,418.61
2023-02-11T00:51:23.744Z,418.72
2023-02-11T00:51:34.750Z,418.83
2023-02-11T00:51:45.753Z,418.93
2023-02-11T00:51:56.744Z,418.92
2023-02-11T00:52:07.743Z,419.09
2023-02-11T00:52:18.753Z,419.25
2023-02-11T00:52:29.762Z,419.54
2023-02-11T00:52:41.735Z,419.52
2023-02-11T00:52:52.754Z,419.54
2023-02-11T00:53:03.754Z,419.72
2023-02-11T00:53:15.785Z,419.86
2023-02-11T00:53:27.742Z,420.06
2023-02-11T00:53:38.749Z,420.19
2023-02-11T00:53:49.737Z,420.28
2023-02-11T00:54:00.749Z,420.31
2023-02-11T00:54:11.763Z,420.44
2023-02-11T00:54:23.724Z,420.70
2023-02-11T00:54:34.749Z,420.76
2023-02-11T00:54:45.742Z,420.85
2023-02-11T00:54:56.740Z,420.73
2023-02-11T00:55:07.747Z,420.67
2023-02-11T00:55:18.740Z,420.68
2023-02-11T00:55:29.752Z,420.69
2023-02-11T00:55:40.752Z,420.81
2023-02-11T00:55:52.037Z,420.96
2023-02-11T00:56:03.759Z,421.00
2023-02-11T00:56:14.743Z,421.01
2023-02-11T00:56:25.751Z,421.07
2023-02-11T00:56:36.773Z,421.10
2023-02-11T00:56:48.734Z,421.08
2023-02-11T00:56:59.768Z,420.98
2023-02-11T00:57:11.736Z,421.00
2023-02-11T00:57:22.727Z,420.99
2023-02-11T00:57:33.734Z,421.15
2023-02-11T00:57:44.742Z,421.24
2023-02-11T00:57:55.761Z,421.45
2023-02-11T00:58:06.748Z,421.58
2023-02-11T00:58:17.742Z,421.57
2023-02-11T00:58:28.727Z,421.57
2023-02-11T00:58:39.762Z,421.79
2023-02-11T00:58:50.747Z,421.66
2023-02-11T00:59:01.756Z,421.71
2023-02-11T00:59:12.763Z,421.55
2023-02-11T00:59:24.754Z,421.53
2023-02-11T00:59:35.754Z,421.52
2023-02-11T00:59:46.760Z,421.68
2023-02-11T00:59:57.755Z,421.71
2023-02-11T01:00:09.735Z,421.62
2023-02-11T01:00:20.734Z,421.60
2023-02-11T01:00:31.724Z,421.54
2023-02-11T01:00:42.721Z,421.41
2023-02-11T01:00:53.775Z,421.27
2023-02-11T01:01:05.764Z,421.24
2023-02-11T01:01:17.782Z,421.26
2023-02-11T01:01:29.811Z,421.35
2023-02-11T01:01:40.819Z,421.39
2023-02-11T01:01:51.743Z,421.36
2023-02-11T01:02:02.745Z,421.35
2023-02-11T01:02:13.774Z,421.38
2023-02-11T01:02:25.741Z,421.40
2023-02-11T01:02:36.737Z,421.40
2023-02-11T01:02:47.721Z,421.38
2023-02-11T01:02:58.712Z,421.30
2023-02-11T01:03:09.727Z,421.47
2023-02-11T01:03:20.732Z,421.58
2023-02-11T01:03:31.727Z,421.76
2023-02-11T01:03:42.725Z,421.68
2023-02-11T01:03:53.727Z,421.51
2023-02-11T01:04:04.725Z,421.38
2023-02-11T01:04:15.756Z,421.33
2023-02-11T01:04:27.737Z,421.32
2023-02-11T01:04:38.776Z,421.36
2023-02-11T01:04:50.772Z,421.31
2023-02-11T01:05:02.797Z,421.25
2023-02-11T01:05:13.791Z,420.89
2023-02-11T01:05:25.870Z,420.62
2023-02-11T01:05:37.806Z,420.62
2023-02-11T01:05:49.071Z,420.55
2023-02-11T01:05:59.755Z,420.52
2023-02-11T01:06:10.752Z,420.62
2023-02-11T01:06:21.752Z,420.62
2023-02-11T01:06:32.761Z,420.52
2023-02-11T01:06:44.750Z,420.30
2023-02-11T01:06:55.748Z,420.17
2023-02-11T01:07:06.752Z,420.31
2023-02-11T01:07:17.740Z,420.17
2023-02-11T01:07:28.745Z,419.94
2023-02-11T01:07:39.738Z,419.99
2023-02-11T01:07:50.765Z,419.88
2023-02-11T01:08:01.764Z,419.94
2023-02-11T01:08:12.763Z,420.00
2023-02-11T01:08:24.756Z,420.01
2023-02-11T01:08:35.756Z,419.94
2023-02-11T01:08:47.749Z,420.01
2023-02-11T01:08:58.763Z,420.02
2023-02-11T01:09:10.722Z,419.94
2023-02-11T01:09:22.743Z,419.86
2023-02-11T01:09:33.766Z,419.84
2023-02-11T01:09:45.740Z,419.68
2023-02-11T01:09:56.732Z,419.61
2023-02-11T01:10:07.737Z,419.81
2023-02-11T01:10:18.726Z,419.92
2023-02-11T01:10:29.744Z,419.83
2023-02-11T01:10:40.741Z,419.69
2023-02-11T01:10:51.747Z,419.62
2023-02-11T01:11:02.753Z,419.41
2023-02-11T01:11:13.752Z,419.29
2023-02-11T01:11:25.736Z,419.30
2023-02-11T01:11:36.733Z,419.03
2023-02-11T01:11:47.745Z,418.93
2023-02-11T01:11:58.740Z,418.73
2023-02-11T01:12:09.742Z,418.68
2023-02-11T01:12:20.736Z,418.69
2023-02-11T01:12:33.479Z,418.88
2023-02-11T01:12:42.761Z,418.95
2023-02-11T01:12:54.737Z,418.85
2023-02-11T01:13:05.739Z,418.83
2023-02-11T01:13:16.756Z,418.83
2023-02-11T01:13:28.738Z,418.78
2023-02-11T01:13:39.742Z,418.91
2023-02-11T01:13:50.755Z,418.94
2023-02-11T01:14:01.750Z,418.96
2023-02-11T01:14:13.734Z,418.94
2023-02-11T01:14:24.733Z,419.00
2023-02-11T01:14:35.733Z,418.91
2023-02-11T01:14:47.742Z,418.96
2023-02-11T01:14:58.749Z,419.02
2023-02-11T01:15:09.761Z,419.14
2023-02-11T01:15:20.746Z,419.17
2023-02-11T01:15:31.802Z,419.08
2023-02-11T01:15:43.785Z,418.99
2023-02-11T01:15:55.850Z,418.92
2023-02-11T01:16:07.846Z,418.95
2023-02-11T01:16:18.854Z,419.01
2023-02-11T01:16:29.749Z,418.97
2023-02-11T01:16:40.747Z,418.83
2023-02-11T01:16:51.748Z,418.80
2023-02-11T01:17:02.742Z,418.93
2023-02-11T01:17:13.737Z,418.94
2023-02-11T01:17:24.725Z,418.90
2023-02-11T01:17:35.711Z,418.82
2023-02-11T01:17:46.705Z,418.73
2023-02-11T01:17:57.707Z,418.66
2023-02-11T01:18:08.711Z,418.74
2023-02-11T01:18:19.711Z,418.83
2023-02-11T01:18:30.705Z,418.81
2023-02-11T01:18:41.709Z,418.76
2023-02-11T01:18:52.706Z,418.79
2023-02-11T01:19:03.709Z,418.76
2023-02-11T01:19:14.804Z,418.97
2023-02-11T01:19:26.775Z,419.09
2023-02-11T01:19:37.764Z,419.12
2023-02-11T01:19:48.768Z,419.08
2023-02-11T01:19:59.774Z,419.04
2023-02-11T01:20:10.764Z,419.11
2023-02-11T01:20:22.760Z,419.09
2023-02-11T01:20:33.751Z,419.12
2023-02-11T01:20:45.745Z,419.27
2023-02-11T01:20:56.733Z,419.29
2023-02-11T01:21:07.752Z,419.27
2023-02-11T01:21:18.755Z,419.33
2023-02-11T01:21:29.746Z,419.34
2023-02-11T01:21:40.757Z,419.39
2023-02-11T01:21:51.736Z,419.43
2023-02-11T01:22:03.734Z,419.33
2023-02-11T01:22:14.719Z,419.30
2023-02-11T01:22:25.717Z,419.27
2023-02-11T01:22:36.713Z,419.28
2023-02-11T01:22:47.762Z,419.22
2023-02-11T01:22:59.723Z,419.26
2023-02-11T01:23:10.724Z,419.31
2023-02-11T01:23:21.727Z,419.34
2023-02-11T01:23:32.734Z,419.36
2023-02-11T01:23:43.730Z,419.33
2023-02-11T01:23:54.731Z,419.38
2023-02-11T01:24:05.723Z,419.54
2023-02-11T01:24:16.709Z,419.60
2023-02-11T01:24:27.795Z,419.62
2023-02-11T01:24:39.770Z,419.70
2023-02-11T01:24:50.764Z,419.84
2023-02-11T01:25:02.754Z,419.90
2023-02-11T01:25:13.751Z,420.01
2023-02-11T01:25:24.745Z,420.22
2023-02-11T01:25:35.746Z,420.29
2023-02-11T01:25:46.734Z,420.26
2023-02-11T01:25:57.756Z,420.29
2023-02-11T01:26:08.750Z,420.31
2023-02-11T01:26:19.761Z,420.33
2023-02-11T01:26:30.760Z,420.45
2023-02-11T01:26:41.763Z,420.57
2023-02-11T01:26:52.754Z,420.59
2023-02-11T01:27:03.765Z,420.66
2023-02-11T01:27:14.762Z,420.85
2023-02-11T01:27:25.761Z,421.08
2023-02-11T01:27:36.764Z,421.15
2023-02-11T01:27:48.756Z,421.07
2023-02-11T01:27:59.764Z,421.06
2023-02-11T01:28:11.840Z,421.05
2023-02-11T01:28:22.850Z,421.15
2023-02-11T01:28:34.833Z,421.32
2023-02-11T01:28:45.753Z,421.34
2023-02-11T01:28:56.744Z,421.26
2023-02-11T01:29:07.770Z,421.13
2023-02-11T01:29:19.747Z,420.99
2023-02-11T01:29:30.746Z,420.90
2023-02-11T01:29:41.755Z,420.94
2023-02-11T01:29:52.770Z,420.86
2023-02-11T01:30:03.763Z,420.87
2023-02-11T01:30:15.755Z,420.93
2023-02-11T01:30:26.749Z,420.86
2023-02-11T01:30:37.738Z,420.78
2023-02-11T01:30:48.859Z,420.78
2023-02-11T01:30:59.805Z,420.78
2023-02-11T01:31:11.914Z,420.74
2023-02-11T01:31:23.833Z,420.65
2023-02-11T01:31:35.957Z,420.53
2023-02-11T01:31:47.799Z,420.46
2023-02-11T01:31:59.777Z,420.30
2023-02-11T01:32:10.754Z,420.29
2023-02-11T01:32:22.778Z,420.31
2023-02-11T01:32:34.729Z,420.25
2023-02-11T01:32:45.734Z,420.29
2023-02-11T01:32:56.768Z,420.32
2023-02-11T01:33:07.758Z,420.29
2023-02-11T01:33:18.753Z,420.24
2023-02-11T01:33:29.760Z,420.26
2023-02-11T01:33:40.766Z,420.17
2023-02-11T01:33:51.758Z,420.06
2023-02-11T01:34:02.760Z,420.06
2023-02-11T01:34:13.758Z,420.02
2023-02-11T01:34:24.758Z,419.99
2023-02-11T01:34:35.760Z,419.96
2023-02-11T01:34:46.770Z,419.96
2023-02-11T01:34:57.757Z,420.00
2023-02-11T01:35:08.763Z,419.96
2023-02-11T01:35:19.756Z,419.97
2023-02-11T01:35:31.732Z,420.00
2023-02-11T01:35:42.732Z,420.08
2023-02-11T01:35:53.859Z,420.08
2023-02-11T01:36:04.775Z,419.92
2023-02-11T01:36:15.763Z,419.88
2023-02-11T01:36:26.747Z,419.68
2023-02-11T01:36:38.727Z,419.62
2023-02-11T01:36:49.738Z,419.58
2023-02-11T01:37:00.733Z,419.63
2023-02-11T01:37:11.716Z,419.75
2023-02-11T01:37:22.716Z,419.85
2023-02-11T01:37:33.714Z,419.94
2023-02-11T01:37:44.714Z,419.93
2023-02-11T01:37:55.728Z,419.93
2023-02-11T01:38:06.709Z,419.89
2023-02-11T01:38:17.727Z,419.88
2023-02-11T01:38:28.722Z,419.79
2023-02-11T01:38:39.722Z,419.71
2023-02-11T01:38:50.765Z,419.62
2023-02-11T01:39:01.764Z,419.64
2023-02-11T01:39:12.761Z,419.66
2023-02-11T01:39:23.765Z,419.77
2023-02-11T01:39:35.770Z,420.09
2023-02-11T01:39:46.761Z,420.16
2023-02-11T01:39:57.760Z,420.00
2023-02-11T01:40:09.747Z,419.85
2023-02-11T01:40:20.763Z,419.84
2023-02-11T01:40:32.740Z,419.71
2023-02-11T01:40:43.764Z,419.50
2023-02-11T01:40:54.790Z,419.37
2023-02-11T01:41:06.766Z,419.30
2023-02-11T01:41:17.763Z,419.40
2023-02-11T01:41:29.733Z,419.43
2023-02-11T01:41:40.714Z,419.51
2023-02-11T01:41:51.799Z,419.56
2023-02-11T01:42:03.765Z,419.65
2023-02-11T01:42:14.755Z,419.60
2023-02-11T01:42:26.757Z,419.61
2023-02-11T01:42:38.753Z,419.62
2023-02-11T01:42:51.109Z,419.64
2023-02-11T01:43:01.737Z,419.57
2023-02-11T01:43:12.758Z,419.66
2023-02-11T01:43:24.744Z,419.81
2023-02-11T01:43:35.748Z,419.96
2023-02-11T01:43:46.742Z,420.27
2023-02-11T01:43:57.736Z,420.44
2023-02-11T01:44:08.751Z,420.53
2023-02-11T01:44:19.753Z,420.62
2023-02-11T01:44:31.741Z,420.62
2023-02-11T01:44:43.732Z,420.61
2023-02-11T01:44:54.731Z,420.78
2023-02-11T01:45:05.721Z,420.83
2023-02-11T01:45:16.724Z,420.76
2023-02-11T01:45:27.715Z,420.80
2023-02-11T01:45:38.711Z,420.96
2023-02-11T01:45:50.155Z,421.05
2023-02-11T01:46:01.837Z,421.14
2023-02-11T01:46:13.774Z,421.20
2023-02-11T01:46:24.770Z,421.20
2023-02-11T01:46:35.968Z,421.26
2023-02-11T01:46:46.831Z,421.32
2023-02-11T01:46:57.759Z,421.40
2023-02-11T01:47:08.764Z,421.34
2023-02-11T01:47:19.742Z,421.25
2023-02-11T01:47:30.755Z,421.24
2023-02-11T01:47:41.742Z,421.28
2023-02-11T01:47:52.740Z,421.23
2023-02-11T01:48:03.743Z,421.20
2023-02-11T01:48:14.740Z,421.20
2023-02-11T01:48:26.762Z,421.07
2023-02-11T01:48:37.757Z,420.88
2023-02-11T01:48:48.805Z,420.72
2023-02-11T01:49:00.814Z,420.57
2023-02-11T01:49:12.866Z,420.47
2023-02-11T01:49:24.861Z,420.27
2023-02-11T01:49:35.848Z,420.08
2023-02-11T01:49:47.780Z,420.06
2023-02-11T01:49:59.772Z,420.08
2023-02-11T01:50:10.766Z,420.01
2023-02-11T01:50:22.746Z,420.05
2023-02-11T01:50:33.745Z,420.21
2023-02-11T01:50:44.728Z,420.19
2023-02-11T01:50:55.748Z,420.14
2023-02-11T01:51:06.758Z,420.26
2023-02-11T01:51:17.753Z,420.28
2023-02-11T01:51:28.764Z,420.32
2023-02-11T01:51:40.730Z,420.33
2023-02-11T01:51:51.710Z,420.32
2023-02-11T01:52:03.737Z,420.31
2023-02-11T01:52:14.719Z,420.29
2023-02-11T01:52:25.727Z,420.19
2023-02-11T01:52:36.719Z,420.03
2023-02-11T01:52:47.735Z,419.93
2023-02-11T01:52:58.742Z,419.95
2023-02-11T01:53:09.743Z,419.92
2023-02-11T01:53:20.760Z,419.81
2023-02-11T01:53:32.743Z,419.77
2023-02-11T01:53:43.739Z,419.70
2023-02-11T01:53:54.741Z,419.78
2023-02-11T01:54:05.739Z,419.82
2023-02-11T01:54:16.728Z,419.88
2023-02-11T01:54:27.733Z,419.93
2023-02-11T01:54:38.712Z,419.95
2023-02-11T01:54:49.781Z,419.93
2023-02-11T01:55:01.752Z,419.78
2023-02-11T01:55:12.737Z,419.68
2023-02-11T01:55:23.746Z,419.70
2023-02-11T01:55:34.749Z,419.90
2023-02-11T01:55:46.742Z,420.11
2023-02-11T01:55:57.729Z,420.18
2023-02-11T01:56:08.739Z,420.20
2023-02-11T01:56:19.731Z,420.18
2023-02-11T01:56:30.726Z,420.18
2023-02-11T01:56:41.744Z,420.16
2023-02-11T01:56:53.736Z,420.18
2023-02-11T01:57:04.792Z,420.37
2023-02-11T01:57:16.758Z,420.33
2023-02-11T01:57:27.763Z,420.11
2023-02-11T01:57:38.753Z,420.20
2023-02-11T01:57:49.759Z,420.29
2023-02-11T01:58:00.753Z,420.22
2023-02-11T01:58:11.735Z,420.21
2023-02-11T01:58:22.752Z,420.23
2023-02-11T01:58:33.751Z,420.32
2023-02-11T01:58:44.749Z,420.43
2023-02-11T01:58:55.747Z,420.53
2023-02-11T01:59:06.761Z,420.54
2023-02-11T01:59:17.764Z,420.44
2023-02-11T01:59:28.761Z,420.33
2023-02-11T01:59:40.744Z,420.22
2023-02-11T01:59:51.749Z,420.16
2023-02-11T02:00:02.764Z,420.23
2023-02-11T02:00:14.754Z,420.33
2023-02-11T02:00:25.736Z,420.27
2023-02-11T02:00:36.739Z,420.28
2023-02-11T02:00:47.772Z,420.28
2023-02-11T02:00:58.763Z,420.21
2023-02-11T02:01:09.762Z,420.09
2023-02-11T02:01:20.767Z,419.97
2023-02-11T02:01:32.792Z,419.95
2023-02-11T02:01:43.763Z,419.95
2023-02-11T02:01:55.797Z,419.97
2023-02-11T02:02:06.704Z,419.92
2023-02-11T02:02:17.726Z,419.92
2023-02-11T02:02:28.713Z,420.05
2023-02-11T02:02:39.710Z,420.30
2023-02-11T02:02:50.753Z,420.52
2023-02-11T02:03:02.744Z,420.74
2023-02-11T02:03:13.778Z,420.86
2023-02-11T02:03:25.843Z,420.98
2023-02-11T02:03:37.824Z,421.06
2023-02-11T02:03:48.844Z,421.15
2023-02-11T02:04:00.889Z,421.15
2023-02-11T02:04:12.780Z,421.01
2023-02-11T02:04:24.740Z,421.09
2023-02-11T02:04:35.733Z,421.35
2023-02-11T02:04:46.746Z,421.55
2023-02-11T02:04:57.764Z,421.59
2023-02-11T02:05:09.768Z,421.70
2023-02-11T02:05:20.764Z,421.91
2023-02-11T02:05:31.764Z,422.00
2023-02-11T02:05:42.767Z,421.91
2023-02-11T02:05:53.758Z,421.83
2023-02-11T02:06:05.736Z,421.74
2023-02-11T02:06:16.718Z,421.70
2023-02-11T02:06:27.774Z,421.61
2023-02-11T02:06:38.765Z,421.53
2023-02-11T02:06:49.759Z,421.40
2023-02-11T02:07:00.749Z,421.19
2023-02-11T02:07:11.765Z,421.05
2023-02-11T02:07:22.757Z,420.94
2023-02-11T02:07:33.765Z,420.90
2023-02-11T02:07:44.749Z,420.76
2023-02-11T02:07:56.741Z,420.65
2023-02-11T02:08:07.781Z,420.52
2023-02-11T02:08:18.767Z,420.46
2023-02-11T02:08:30.737Z,420.45
2023-02-11T02:08:41.748Z,420.47
2023-02-11T02:08:52.746Z,420.48
2023-02-11T02:09:03.745Z,420.52
2023-02-11T02:09:14.741Z,420.56
2023-02-11T02:09:25.757Z,420.65
2023-02-11T02:09:36.770Z,420.66
2023-02-11T02:09:48.738Z,420.65
2023-02-11T02:09:59.741Z,420.67
2023-02-11T02:10:10.735Z,420.83
2023-02-11T02:10:22.752Z,421.12
2023-02-11T02:10:33.731Z,421.42
2023-02-11T02:10:44.718Z,421.67
2023-02-11T02:10:55.715Z,421.71
2023-02-11T02:11:06.730Z,421.65
2023-02-11T02:11:17.749Z,421.60
2023-02-11T02:11:28.750Z,421.73
2023-02-11T02:11:39.747Z,421.86
2023-02-11T02:11:50.741Z,421.98
2023-02-11T02:12:01.740Z,422.11
2023-02-11T02:12:12.732Z,422.25
2023-02-11T02:12:23.738Z,422.34
2023-02-11T02:12:34.739Z,422.36
2023-02-11T02:12:45.732Z,422.44
2023-02-11T02:12:56.752Z,422.53
2023-02-11T02:13:07.751Z,422.79
2023-02-11T02:13:18.746Z,422.89
2023-02-11T02:13:29.727Z,422.95
2023-02-11T02:13:40.735Z,423.01
2023-02-11T02:13:51.735Z,422.96
2023-02-11T02:14:02.730Z,422.87
2023-02-11T02:14:13.778Z,422.91
2023-02-11T02:14:25.746Z,422.89
2023-02-11T02:14:36.734Z,422.90
2023-02-11T02:14:47.740Z,422.96
2023-02-11T02:14:58.744Z,422.92
2023-02-11T02:15:09.756Z,422.75
2023-02-11T02:15:20.743Z,422.66
2023-02-11T02:15:32.763Z,422.72
2023-02-11T02:15:44.756Z,422.75
2023-02-11T02:15:55.753Z,422.72
2023-02-11T02:16:09.600Z,422.64
2023-02-11T02:16:17.782Z,422.64
2023-02-11T02:16:29.761Z,422.68
2023-02-11T02:16:41.782Z,422.66
2023-02-11T02:16:52.796Z,422.66
2023-02-11T02:17:04.769Z,422.68
2023-02-11T02:17:16.761Z,422.66
2023-02-11T02:17:27.742Z,422.65
2023-02-11T02:17:38.757Z,422.69
2023-02-11T02:17:49.762Z,422.78
2023-02-11T02:18:01.755Z,422.87
2023-02-11T02:18:12.737Z,422.97
2023-02-11T02:18:23.724Z,423.12
2023-02-11T02:18:34.725Z,423.44
2023-02-11T02:18:45.707Z,423.57
2023-02-11T02:18:56.732Z,423.56
2023-02-11T02:19:07.750Z,423.65
2023-02-11T02:19:18.735Z,423.82
2023-02-11T02:19:29.725Z,423.90
2023-02-11T02:19:40.718Z,423.82
2023-02-11T02:19:51.716Z,423.75